createdAt,value
2022-12-17T00:00:14.518Z,38.50
2022-12-17T00:03:00.604Z,35.83
2022-12-17T00:05:46.586Z,37.07
2022-12-17T00:08:32.536Z,39.07
2022-12-17T00:11:18.607Z,39.53
2022-12-17T00:14:04.512Z,36.70
2022-12-17T00:16:50.438Z,37.37
2022-12-17T00:19:36.459Z,37.43
2022-12-17T00:22:22.421Z,36.37
2022-12-17T00:25:08.500Z,38.20
2022-12-17T00:27:54.573Z,37.40
2022-12-17T00:30:40.480Z,38.13
2022-12-17T00:33:26.499Z,38.50
2022-12-17T00:36:12.623Z,41.20
2022-12-17T00:38:58.632Z,38.70
2022-12-17T00:41:44.680Z,36.53
2022-12-17T00:44:30.609Z,36.43
2022-12-17T00:47:16.522Z,37.60
2022-12-17T00:50:02.496Z,42.17
2022-12-17T00:52:48.070Z,38.93
2022-12-17T00:55:34.159Z,38.43
2022-12-17T00:58:19.890Z,36.20
2022-12-17T01:01:05.848Z,35.47
2022-12-17T01:03:51.790Z,36.40
2022-12-17T01:06:38.133Z,35.70
2022-12-17T01:09:24.065Z,34.43
2022-12-17T01:12:10.260Z,36.33
2022-12-17T01:14:56.084Z,37.87
2022-12-17T01:17:41.978Z,35.73
2022-12-17T01:20:27.705Z,37.20
2022-12-17T01:23:33.761Z,34.00
2022-12-17T01:26:19.954Z,35.17
2022-12-17T01:29:05.992Z,32.80
2022-12-17T01:31:51.929Z,33.47
2022-12-17T01:34:37.660Z,32.90
2022-12-17T01:37:23.428Z,33.43
2022-12-17T01:40:09.382Z,35.60
2022-12-17T01:42:59.018Z,34.00
2022-12-17T01:45:45.164Z,34.47
2022-12-17T01:48:32.949Z,34.97
2022-12-17T01:51:19.063Z,34.87
2022-12-17T01:54:06.638Z,34.60
2022-12-17T01:56:56.945Z,33.73
2022-12-17T02:00:03.039Z,33.90
2022-12-17T02:02:48.838Z,31.33
2022-12-17T02:05:34.781Z,34.00
2022-12-17T02:08:20.757Z,33.70
2022-12-17T02:11:18.334Z,34.00
2022-12-17T02:14:25.326Z,38.83
2022-12-17T02:17:12.150Z,37.73
2022-12-17T02:20:10.076Z,42.60
2022-12-17T02:23:14.479Z,38.47
2022-12-17T02:26:05.399Z,36.93
2022-12-17T02:28:50.939Z,39.10
2022-12-17T02:31:36.675Z,40.77
2022-12-17T02:34:22.625Z,39.57
2022-12-17T02:37:08.652Z,39.40
2022-12-17T02:39:57.146Z,37.90
2022-12-17T02:43:02.995Z,38.13
2022-12-17T02:45:48.490Z,34.90
2022-12-17T02:48:34.420Z,33.57
2022-12-17T02:51:20.093Z,31.67
2022-12-17T02:54:05.967Z,28.57
2022-12-17T02:56:51.755Z,26.33
2022-12-17T02:59:37.669Z,26.10
2022-12-17T03:02:23.740Z,25.03
2022-12-17T03:05:35.714Z,24.37
2022-12-17T03:08:15.542Z,23.63
2022-12-17T03:11:01.595Z,25.13
2022-12-17T03:13:48.174Z,24.03
2022-12-17T03:16:37.798Z,24.03
2022-12-17T03:19:23.783Z,27.83
2022-12-17T03:22:09.702Z,27.60
2022-12-17T03:24:55.575Z,24.93
2022-12-17T03:27:41.551Z,24.90
2022-12-17T03:30:28.826Z,26.07
2022-12-17T03:33:17.029Z,26.50
2022-12-17T03:36:02.655Z,27.43
2022-12-17T03:38:48.673Z,25.00
2022-12-17T03:41:34.403Z,25.50
2022-12-17T03:44:20.428Z,26.13
2022-12-17T03:47:06.570Z,25.23
2022-12-17T03:49:52.580Z,24.37
2022-12-17T03:52:38.615Z,23.40
2022-12-17T03:55:24.688Z,24.37
2022-12-17T03:58:10.532Z,25.73
2022-12-17T04:00:56.503Z,27.67
2022-12-17T04:03:42.300Z,25.53
2022-12-17T04:06:28.028Z,26.37
2022-12-17T04:09:14.144Z,27.13
2022-12-17T04:12:00.215Z,23.80
2022-12-17T04:14:46.300Z,26.50
2022-12-17T04:17:32.285Z,25.77
2022-12-17T04:20:18.256Z,24.90
2022-12-17T04:23:04.269Z,26.27
2022-12-17T04:25:49.824Z,24.73
2022-12-17T04:28:35.669Z,26.50
2022-12-17T04:31:21.720Z,26.67
2022-12-17T04:34:07.454Z,22.43
2022-12-17T04:36:53.507Z,27.83
2022-12-17T04:39:39.279Z,25.57
2022-12-17T04:42:25.227Z,24.50
2022-12-17T04:45:11.233Z,25.80
2022-12-17T04:47:57.045Z,25.37
2022-12-17T04:50:43.067Z,25.87
2022-12-17T04:53:29.117Z,25.70
2022-12-17T04:56:15.198Z,23.57
2022-12-17T04:59:01.210Z,23.20
2022-12-17T05:01:47.278Z,22.80
2022-12-17T05:04:32.961Z,24.20
2022-12-17T05:07:18.964Z,22.97
2022-12-17T05:10:04.891Z,23.13
2022-12-17T05:12:50.722Z,24.17
2022-12-17T05:15:36.726Z,21.93
2022-12-17T05:18:26.157Z,20.93
2022-12-17T05:21:12.168Z,21.47
2022-12-17T05:23:58.094Z,20.50
2022-12-17T05:26:44.413Z,21.03
2022-12-17T05:29:30.591Z,21.97
2022-12-17T05:32:16.325Z,22.13
2022-12-17T05:35:02.264Z,21.20
2022-12-17T05:37:48.313Z,22.73
2022-12-17T05:40:34.182Z,21.30
2022-12-17T05:43:20.621Z,22.17
2022-12-17T05:46:06.837Z,21.43
2022-12-17T05:48:52.725Z,19.37
2022-12-17T05:51:39.142Z,21.43
2022-12-17T05:54:24.930Z,19.10
2022-12-17T05:57:10.925Z,19.90
2022-12-17T05:59:56.953Z,20.73
2022-12-17T06:02:43.148Z,20.47
2022-12-17T06:05:28.845Z,21.13
2022-12-17T06:08:21.409Z,24.60
2022-12-17T06:11:07.428Z,21.73
2022-12-17T06:14:00.838Z,21.00
2022-12-17T06:16:46.751Z,20.73
2022-12-17T06:19:32.884Z,20.93
2022-12-17T06:22:18.854Z,22.13
2022-12-17T06:25:04.773Z,22.43
2022-12-17T06:27:50.682Z,20.20
2022-12-17T06:30:36.767Z,19.47
2022-12-17T06:33:23.584Z,20.47
2022-12-17T06:36:09.434Z,19.97
2022-12-17T06:38:55.116Z,21.40
2022-12-17T06:41:40.826Z,21.83
2022-12-17T06:44:26.735Z,22.80
2022-12-17T06:47:12.743Z,26.27
2022-12-17T06:50:01.479Z,23.43
2022-12-17T06:52:47.611Z,24.00
2022-12-17T06:55:33.640Z,24.90
2022-12-17T06:58:19.580Z,28.47
2022-12-17T07:01:05.698Z,28.47
2022-12-17T07:03:51.380Z,27.00
2022-12-17T07:06:37.304Z,24.93
2022-12-17T07:09:23.330Z,22.83
2022-12-17T07:12:09.214Z,26.70
2022-12-17T07:14:55.027Z,34.20
2022-12-17T07:17:42.629Z,29.40
2022-12-17T07:20:28.897Z,53.27
2022-12-17T07:23:15.172Z,29.50
2022-12-17T07:26:01.197Z,32.93
2022-12-17T07:28:47.201Z,34.83
2022-12-17T07:31:33.242Z,41.93
2022-12-17T07:34:19.153Z,31.50
2022-12-17T07:37:05.075Z,32.30
2022-12-17T07:39:50.943Z,26.73
2022-12-17T07:42:37.096Z,32.07
2022-12-17T07:45:23.145Z,32.77
2022-12-17T07:48:14.758Z,30.83
2022-12-17T07:51:00.758Z,26.03
2022-12-17T07:53:46.553Z,27.20
2022-12-17T07:56:32.397Z,26.73
2022-12-17T07:59:18.474Z,26.17
2022-12-17T08:02:04.737Z,26.70
2022-12-17T08:04:50.659Z,25.43
2022-12-17T08:07:36.606Z,26.53
2022-12-17T08:10:22.633Z,24.17
2022-12-17T08:13:15.166Z,24.70
2022-12-17T08:16:01.042Z,24.37
2022-12-17T08:18:57.822Z,25.50
2022-12-17T08:21:43.901Z,24.83
2022-12-17T08:24:29.846Z,27.00
2022-12-17T08:27:15.506Z,26.77
2022-12-17T08:30:01.552Z,25.03
2022-12-17T08:32:47.600Z,28.37
2022-12-17T08:35:33.307Z,26.17
2022-12-17T08:38:22.410Z,26.00
2022-12-17T08:41:08.464Z,28.17
2022-12-17T08:43:54.425Z,28.30
2022-12-17T08:46:40.437Z,28.70
2022-12-17T08:49:26.467Z,29.67
2022-12-17T08:52:12.303Z,26.03
2022-12-17T08:54:58.301Z,26.83
2022-12-17T08:57:44.216Z,25.67
2022-12-17T09:00:30.036Z,26.27
2022-12-17T09:03:19.342Z,30.40
2022-12-17T09:06:05.213Z,28.57
2022-12-17T09:08:51.175Z,33.87
2022-12-17T09:11:37.105Z,37.77
2022-12-17T09:14:23.007Z,45.13
2022-12-17T09:17:09.196Z,47.43
2022-12-17T09:19:54.971Z,44.47
2022-12-17T09:22:40.936Z,68.00
2022-12-17T09:25:26.849Z,49.20
2022-12-17T09:28:12.927Z,64.73
2022-12-17T09:30:58.660Z,87.03
2022-12-17T09:33:44.451Z,72.53
2022-12-17T09:36:30.446Z,50.47
2022-12-17T09:39:16.424Z,43.13
2022-12-17T09:42:11.398Z,67.73
2022-12-17T09:45:06.301Z,51.17
2022-12-17T09:47:57.748Z,57.93
2022-12-17T09:50:43.751Z,56.83
2022-12-17T09:53:58.638Z,79.03
2022-12-17T09:56:44.965Z,75.70
2022-12-17T09:59:40.908Z,61.73
2022-12-17T10:02:31.502Z,69.47
2022-12-17T10:05:17.331Z,58.17
2022-12-17T10:08:03.095Z,57.47
2022-12-17T10:10:49.880Z,67.50
2022-12-17T10:13:37.019Z,64.23
2022-12-17T10:16:35.971Z,56.77
2022-12-17T10:19:21.869Z,53.90
2022-12-17T10:22:07.516Z,46.90
2022-12-17T10:25:02.674Z,43.67
2022-12-17T10:27:48.564Z,45.47
2022-12-17T10:30:35.140Z,43.17
2022-12-17T10:33:23.977Z,39.63
2022-12-17T10:36:09.930Z,41.87
2022-12-17T10:38:55.968Z,35.17
2022-12-17T10:41:48.573Z,34.57
2022-12-17T10:44:46.305Z,33.60
2022-12-17T10:47:32.554Z,34.03
2022-12-17T10:50:19.038Z,51.40
2022-12-17T10:53:05.148Z,40.37
2022-12-17T10:55:50.959Z,37.63
2022-12-17T10:58:44.595Z,34.63
2022-12-17T11:01:30.934Z,30.57
2022-12-17T11:04:17.414Z,31.40
2022-12-17T11:07:04.444Z,30.90
2022-12-17T11:10:09.637Z,30.43
2022-12-17T11:12:59.027Z,32.70
2022-12-17T11:15:52.287Z,29.57
2022-12-17T11:18:45.541Z,30.10
2022-12-17T11:21:32.882Z,27.43
2022-12-17T11:24:22.496Z,31.57
2022-12-17T11:27:09.720Z,30.07
2022-12-17T11:29:55.566Z,38.40
2022-12-17T11:32:43.990Z,36.80
2022-12-17T11:35:47.569Z,34.70
2022-12-17T11:38:41.138Z,39.70
2022-12-17T11:41:32.576Z,41.43
2022-12-17T11:44:21.038Z,34.43
2022-12-17T11:47:18.703Z,35.67
2022-12-17T11:50:24.772Z,34.87
2022-12-17T11:53:29.730Z,32.77
2022-12-17T11:56:24.556Z,31.10
2022-12-17T11:59:11.379Z,31.03
2022-12-17T12:02:05.779Z,32.30
2022-12-17T12:05:03.519Z,31.37
2022-12-17T12:08:01.304Z,32.17
2022-12-17T12:10:49.900Z,32.87
2022-12-17T12:13:44.905Z,32.33
2022-12-17T12:16:43.995Z,38.50
2022-12-17T12:19:32.893Z,39.67
2022-12-17T12:22:23.669Z,34.57
2022-12-17T12:25:13.425Z,31.60
2022-12-17T12:28:05.081Z,35.67
2022-12-17T12:31:06.815Z,33.67
2022-12-17T12:33:52.420Z,34.73
2022-12-17T12:36:38.451Z,32.67
2022-12-17T12:39:24.258Z,35.77
2022-12-17T12:42:20.964Z,35.73
2022-12-17T12:45:29.247Z,35.70
2022-12-17T12:48:21.152Z,36.00
2022-12-17T12:51:11.555Z,35.97
2022-12-17T12:53:57.398Z,38.63
2022-12-17T12:56:46.630Z,35.47
2022-12-17T12:59:43.699Z,36.43
2022-12-17T13:02:33.722Z,34.40
2022-12-17T13:05:19.495Z,36.20
2022-12-17T13:07:46.678Z,37.17
2022-12-17T13:10:32.461Z,41.50
2022-12-17T13:13:00.818Z,37.20
2022-12-17T13:15:33.684Z,40.10
2022-12-17T13:18:16.415Z,37.87
2022-12-17T13:20:43.580Z,35.43
2022-12-17T13:23:11.154Z,36.03
2022-12-17T13:25:38.313Z,36.50
2022-12-17T13:28:05.542Z,34.97
2022-12-17T13:30:38.911Z,39.30
2022-12-17T13:33:27.488Z,37.67
2022-12-17T13:35:57.782Z,40.67
2022-12-17T13:38:37.558Z,37.97
2022-12-17T13:41:10.344Z,38.27
2022-12-17T13:43:43.431Z,38.73
2022-12-17T13:46:36.661Z,39.23
2022-12-17T13:49:04.830Z,43.33
2022-12-17T13:51:32.533Z,40.03
2022-12-17T13:54:03.391Z,43.03
2022-12-17T13:56:31.383Z,39.83
2022-12-17T13:59:03.118Z,39.30
2022-12-17T14:01:33.722Z,42.97
2022-12-17T14:04:08.447Z,39.30
2022-12-17T14:06:37.226Z,40.67
2022-12-17T14:09:04.404Z,43.50
2022-12-17T14:11:50.674Z,44.53
2022-12-17T14:14:38.108Z,44.73
2022-12-17T14:17:05.324Z,46.53
2022-12-17T14:19:32.571Z,49.40
2022-12-17T14:21:59.892Z,49.37
2022-12-17T14:24:27.334Z,42.43
2022-12-17T14:26:55.279Z,50.00
2022-12-17T14:29:25.771Z,53.47
2022-12-17T14:31:56.805Z,48.80
2022-12-17T14:34:24.367Z,44.63
2022-12-17T14:36:58.597Z,46.73
2022-12-17T14:39:29.936Z,45.27
2022-12-17T14:42:16.112Z,44.00
2022-12-17T14:44:52.377Z,43.27
2022-12-17T14:47:21.547Z,36.53
2022-12-17T14:49:55.433Z,38.77
2022-12-17T14:52:35.567Z,36.90
2022-12-17T14:55:03.067Z,39.87
2022-12-17T14:57:30.237Z,42.10
2022-12-17T14:59:57.426Z,46.80
2022-12-17T15:02:28.372Z,52.63
2022-12-17T15:04:58.870Z,44.73
2022-12-17T15:07:26.875Z,35.07
2022-12-17T15:09:54.143Z,33.93
2022-12-17T15:12:21.630Z,39.67
2022-12-17T15:14:48.982Z,37.27
2022-12-17T15:17:16.216Z,34.77
2022-12-17T15:19:43.438Z,35.80
2022-12-17T15:22:17.024Z,38.03
2022-12-17T15:24:44.685Z,38.50
2022-12-17T15:27:16.234Z,37.33
2022-12-17T15:29:44.355Z,40.70
2022-12-17T15:32:14.517Z,39.10
2022-12-17T15:34:41.740Z,36.90
2022-12-17T15:37:08.972Z,42.93
2022-12-17T15:39:36.102Z,65.47
2022-12-17T15:42:21.786Z,49.63
2022-12-17T15:44:48.936Z,42.20
2022-12-17T15:47:16.078Z,33.83
2022-12-17T15:49:44.765Z,35.90
2022-12-17T15:52:15.011Z,37.80
2022-12-17T15:54:45.175Z,43.63
2022-12-17T15:57:18.384Z,46.10
2022-12-17T15:59:45.942Z,45.43
2022-12-17T16:02:13.425Z,42.07
2022-12-17T16:04:41.090Z,41.43
2022-12-17T16:07:08.313Z,41.90
2022-12-17T16:09:35.505Z,34.20
2022-12-17T16:12:02.681Z,35.77
2022-12-17T16:14:29.913Z,36.77
2022-12-17T16:16:57.092Z,39.33
2022-12-17T16:19:24.252Z,37.40
2022-12-17T16:21:51.522Z,39.50
2022-12-17T16:24:18.816Z,37.27
2022-12-17T16:26:45.998Z,38.00
2022-12-17T16:29:13.204Z,40.97
2022-12-17T16:31:40.460Z,42.23
2022-12-17T16:34:10.792Z,45.07
2022-12-17T16:36:37.988Z,55.60
2022-12-17T16:39:05.308Z,57.40
2022-12-17T16:41:32.555Z,53.63
2022-12-17T16:43:59.931Z,38.30
2022-12-17T16:46:27.330Z,46.90
2022-12-17T16:48:54.642Z,51.17
2022-12-17T16:51:28.392Z,50.27
2022-12-17T16:53:56.684Z,50.83
2022-12-17T16:56:24.652Z,54.57
2022-12-17T16:58:52.672Z,37.97
2022-12-17T17:01:20.574Z,36.37
2022-12-17T17:03:48.202Z,39.13
2022-12-17T17:06:15.768Z,37.67
2022-12-17T17:08:42.915Z,38.73
2022-12-17T17:11:16.776Z,40.77
2022-12-17T17:13:44.009Z,41.70
2022-12-17T17:16:11.440Z,38.70
2022-12-17T17:18:39.028Z,40.70
2022-12-17T17:21:16.316Z,41.10
2022-12-17T17:23:43.628Z,44.10
2022-12-17T17:26:10.921Z,48.67
2022-12-17T17:28:38.580Z,45.67
2022-12-17T17:31:06.946Z,44.73
2022-12-17T17:33:35.415Z,45.90
2022-12-17T17:36:06.276Z,42.90
2022-12-17T17:38:34.995Z,37.63
2022-12-17T17:41:02.532Z,40.33
2022-12-17T17:43:29.749Z,37.53
2022-12-17T17:45:56.959Z,42.80
2022-12-17T17:48:24.091Z,49.83
2022-12-17T17:50:58.397Z,47.20
2022-12-17T17:53:25.840Z,52.13
2022-12-17T17:55:52.999Z,46.93
2022-12-17T17:58:20.213Z,48.13
2022-12-17T18:00:47.510Z,50.63
2022-12-17T18:03:14.835Z,49.73
2022-12-17T18:05:42.622Z,48.40
2022-12-17T18:08:09.858Z,48.60
2022-12-17T18:10:37.157Z,54.13
2022-12-17T18:13:22.917Z,45.23
2022-12-17T18:15:50.192Z,46.10
2022-12-17T18:18:17.424Z,48.20
2022-12-17T18:20:44.649Z,49.77
2022-12-17T18:23:11.865Z,51.67
2022-12-17T18:25:39.006Z,49.40
2022-12-17T18:28:06.268Z,49.87
2022-12-17T18:30:33.460Z,51.07
2022-12-17T18:33:00.643Z,52.97
2022-12-17T18:35:27.850Z,63.73
2022-12-17T18:37:54.982Z,59.53
2022-12-17T18:40:22.158Z,50.67
2022-12-17T18:43:07.935Z,51.40
2022-12-17T18:45:38.188Z,60.43
2022-12-17T18:48:05.791Z,44.33
2022-12-17T18:50:32.986Z,41.27
2022-12-17T18:53:00.100Z,42.00
2022-12-17T18:55:27.272Z,43.17
2022-12-17T18:57:54.521Z,41.43
2022-12-17T19:00:21.734Z,46.00
2022-12-17T19:02:49.058Z,45.67
2022-12-17T19:05:16.368Z,50.23
2022-12-17T19:07:43.738Z,41.77
2022-12-17T19:10:11.006Z,39.63
2022-12-17T19:12:38.161Z,37.53
2022-12-17T19:15:05.476Z,37.40
2022-12-17T19:17:32.810Z,38.37
2022-12-17T19:20:00.038Z,39.37
2022-12-17T19:22:27.243Z,44.20
2022-12-17T19:24:54.435Z,47.53
2022-12-17T19:27:21.644Z,44.73
2022-12-17T19:29:49.867Z,44.60
2022-12-17T19:32:17.304Z,42.27
2022-12-17T19:34:44.723Z,43.93
2022-12-17T19:37:12.292Z,39.10
2022-12-17T19:39:39.461Z,37.70
2022-12-17T19:42:24.424Z,43.37
2022-12-17T19:44:55.459Z,45.27
2022-12-17T19:47:25.462Z,41.23
2022-12-17T19:49:52.645Z,47.20
2022-12-17T19:52:19.814Z,42.70
2022-12-17T19:54:47.017Z,41.33
2022-12-17T19:57:14.188Z,44.10
2022-12-17T19:59:41.385Z,42.00
2022-12-17T20:02:09.648Z,38.53
2022-12-17T20:04:36.893Z,39.50
2022-12-17T20:07:04.156Z,39.00
2022-12-17T20:09:31.397Z,35.13
2022-12-17T20:11:58.604Z,35.50
2022-12-17T20:14:26.523Z,42.23
2022-12-17T20:16:55.453Z,41.03
2022-12-17T20:19:26.634Z,41.90
2022-12-17T20:21:54.860Z,37.97
2022-12-17T20:24:28.863Z,39.13
2022-12-17T20:26:58.223Z,42.20
2022-12-17T20:29:25.527Z,41.07
2022-12-17T20:31:52.992Z,41.17
2022-12-17T20:34:20.560Z,39.97
2022-12-17T20:36:47.722Z,38.60
2022-12-17T20:39:14.918Z,39.20
2022-12-17T20:41:42.210Z,36.87
2022-12-17T20:44:11.628Z,37.30
2022-12-17T20:46:41.039Z,36.57
2022-12-17T20:49:08.304Z,37.37
2022-12-17T20:51:35.484Z,37.90
2022-12-17T20:54:02.813Z,38.10
2022-12-17T20:56:30.827Z,40.17
2022-12-17T20:58:58.998Z,39.60
2022-12-17T21:01:27.001Z,36.93
2022-12-17T21:03:54.813Z,37.37
2022-12-17T21:06:23.021Z,35.20
2022-12-17T21:08:51.091Z,34.27
2022-12-17T21:11:19.081Z,36.60
2022-12-17T21:13:46.401Z,35.10
2022-12-17T21:16:14.480Z,36.30
2022-12-17T21:18:42.050Z,38.60
2022-12-17T21:21:18.009Z,35.13
2022-12-17T21:23:45.478Z,34.00
2022-12-17T21:26:16.735Z,32.57
2022-12-17T21:28:45.410Z,33.03
2022-12-17T21:31:19.630Z,29.33
2022-12-17T21:33:50.249Z,28.80
2022-12-17T21:36:18.525Z,28.23
2022-12-17T21:38:45.688Z,26.40
2022-12-17T21:41:15.553Z,24.37
2022-12-17T21:43:42.761Z,24.83
2022-12-17T21:46:10.683Z,25.83
2022-12-17T21:48:41.896Z,23.37
2022-12-17T21:51:09.902Z,23.83
2022-12-17T21:53:41.875Z,26.47
2022-12-17T21:56:10.105Z,23.77
2022-12-17T21:58:37.939Z,26.53
2022-12-17T22:01:13.944Z,26.03
2022-12-17T22:03:46.715Z,31.03
2022-12-17T22:06:15.585Z,27.20
2022-12-17T22:08:43.109Z,25.83
2022-12-17T22:11:18.811Z,24.77
2022-12-17T22:14:08.628Z,25.67
2022-12-17T22:16:46.740Z,24.40
2022-12-17T22:19:14.750Z,23.90
2022-12-17T22:21:42.922Z,24.60
2022-12-17T22:24:17.141Z,22.97
2022-12-17T22:26:44.676Z,24.43
2022-12-17T22:29:11.858Z,24.40
2022-12-17T22:31:57.878Z,22.63
2022-12-17T22:34:45.077Z,23.23
2022-12-17T22:40:05.749Z,23.97
2022-12-17T22:44:34.853Z,22.33
2022-12-17T22:44:43.119Z,22.13
2022-12-17T22:45:53.183Z,21.70
2022-12-17T22:48:22.109Z,25.00
2022-12-17T22:51:01.953Z,22.73
2022-12-17T22:53:31.760Z,22.93
2022-12-17T22:56:12.413Z,21.90
2022-12-17T22:58:43.375Z,21.23
2022-12-17T23:01:10.547Z,22.17
2022-12-17T23:03:38.234Z,22.77
2022-12-17T23:06:06.965Z,21.93
2022-12-17T23:08:34.122Z,22.60
2022-12-17T23:11:06.186Z,21.20
2022-12-17T23:13:33.366Z,21.27
2022-12-17T23:16:00.613Z,22.77
2022-12-17T23:18:27.826Z,25.33
2022-12-17T23:20:55.029Z,23.80
2022-12-17T23:23:22.208Z,23.30
2022-12-17T23:25:49.339Z,21.53
2022-12-17T23:28:16.501Z,22.60
2022-12-17T23:30:43.673Z,20.77
2022-12-17T23:33:10.840Z,19.73
2022-12-17T23:35:38.132Z,21.13
2022-12-17T23:38:05.317Z,21.47
2022-12-17T23:40:32.549Z,22.70
2022-12-17T23:43:00.672Z,21.20
2022-12-17T23:45:28.512Z,22.70
2022-12-17T23:47:57.426Z,21.20
2022-12-17T23:50:24.646Z,23.73
2022-12-17T23:52:51.783Z,21.87
2022-12-17T23:55:18.970Z,21.83
2022-12-17T23:57:46.429Z,22.43
